Time;durP1;ratioP1;P1;durP2;ratioP2;P2;SDS_P1;SDS_P2;PMS_P1;PMS_P2;Temp;Humidity;BMP_temperature;BMP_pressure;BME280_temperature;BME280_humidity;BME280_pressure;Samples;Min_cycle;Max_cycle;Signal;HPM_P1;HPM_P2
2021/05/12 00:01:40;;;;;;;3.30;2.03;;;12.80;99.90;;;;;;6689340;88;20221;-77
2021/05/12 00:11:41;;;;;;;4.70;2.30;;;12.60;99.90;;;;;;6688918;88;20295;-78
2021/05/12 00:21:47;;;;;;;5.78;2.03;;;12.50;99.90;;;;;;6689873;88;20283;-78
2021/05/12 00:31:47;;;;;;;5.13;2.13;;;12.50;99.90;;;;;;6686505;88;20277;-77
2021/05/12 00:41:48;;;;;;;6.37;2.42;;;12.40;99.90;;;;;;6687899;88;20194;-78
2021/05/12 00:51:49;;;;;;;6.87;2.45;;;12.30;99.90;;;;;;6689076;88;20967;-78
2021/05/12 01:01:49;;;;;;;6.68;2.42;;;12.30;99.90;;;;;;6688717;88;20184;-78
2021/05/12 01:11:50;;;;;;;7.45;2.60;;;12.20;99.90;;;;;;6688200;88;20305;-78
2021/05/12 01:21:50;;;;;;;8.40;3.37;;;12.20;99.90;;;;;;6687854;88;20958;-79
2021/05/12 01:31:54;;;;;;;7.60;3.72;;;12.20;99.90;;;;;;6688116;88;20190;-78
2021/05/12 01:41:54;;;;;;;8.73;3.92;;;12.30;99.90;;;;;;6688347;88;20330;-78
2021/05/12 01:51:55;;;;;;;8.10;4.72;;;12.30;99.90;;;;;;6687839;88;20210;-78
2021/05/12 02:01:56;;;;;;;10.50;6.12;;;12.30;99.90;;;;;;6684721;88;20219;-79
2021/05/12 02:11:56;;;;;;;13.85;6.07;;;12.40;99.90;;;;;;6686452;88;20183;-79
2021/05/12 02:21:57;;;;;;;12.68;6.57;;;12.50;99.90;;;;;;6688906;88;20291;-78
2021/05/12 02:31:57;;;;;;;10.63;6.78;;;12.50;99.90;;;;;;6691279;88;20200;-79
2021/05/12 02:41:58;;;;;;;14.38;7.37;;;12.60;99.90;;;;;;6691543;88;20207;-78
2021/05/12 02:51:59;;;;;;;16.17;7.72;;;12.60;99.90;;;;;;6704011;88;20636;-78
2021/05/12 03:01:59;;;;;;;17.85;8.90;;;12.60;99.90;;;;;;6710463;88;20183;-77
2021/05/12 03:12:00;;;;;;;12.88;7.53;;;12.60;99.90;;;;;;6708441;88;20209;-78
2021/05/12 03:22:00;;;;;;;14.63;7.97;;;12.60;99.90;;;;;;6710053;88;20194;-77
2021/05/12 03:32:01;;;;;;;16.70;8.20;;;12.60;99.90;;;;;;6702511;88;20247;-78
2021/05/12 03:42:02;;;;;;;13.77;7.93;;;12.50;99.90;;;;;;6685557;88;20321;-77
2021/05/12 03:52:03;;;;;;;12.60;6.97;;;12.40;99.90;;;;;;6684795;88;20330;-78
2021/05/12 04:02:03;;;;;;;11.20;6.87;;;12.40;99.90;;;;;;6684862;88;20265;-76
2021/05/12 04:12:04;;;;;;;13.60;7.97;;;12.70;99.90;;;;;;6684562;88;20236;-79
2021/05/12 04:22:05;;;;;;;15.77;7.18;;;12.60;99.90;;;;;;6684630;88;20294;-78
2021/05/12 04:32:06;;;;;;;16.73;7.70;;;12.50;99.90;;;;;;6684971;88;20712;-77
2021/05/12 04:42:07;;;;;;;13.45;7.93;;;12.60;99.90;;;;;;6685539;88;20225;-78
2021/05/12 04:52:07;;;;;;;14.82;7.22;;;12.50;99.90;;;;;;6685456;88;20198;-76
2021/05/12 05:02:11;;;;;;;13.30;6.43;;;12.70;99.90;;;;;;6685389;88;20198;-76
2021/05/12 05:12:11;;;;;;;10.50;5.68;;;12.90;99.90;;;;;;6684959;88;20616;-77
2021/05/12 05:22:14;;;;;;;13.40;6.40;;;13.00;99.90;;;;;;6683923;88;20222;-77
2021/05/12 05:32:15;;;;;;;11.80;5.85;;;12.80;99.90;;;;;;6681149;88;20193;-78
2021/05/12 05:42:15;;;;;;;10.77;5.50;;;13.00;99.90;;;;;;6681789;88;20311;-78
2021/05/12 05:52:16;;;;;;;10.30;5.70;;;13.20;99.90;;;;;;6686362;88;20349;-78
2021/05/12 06:02:16;;;;;;;10.07;5.30;;;13.30;99.90;;;;;;6684959;88;20214;-77
2021/05/12 06:12:17;;;;;;;8.68;4.80;;;13.30;99.90;;;;;;6682973;88;20686;-76
2021/05/12 06:22:18;;;;;;;8.02;4.40;;;13.50;99.90;;;;;;6682914;88;20238;-75
2021/05/12 06:32:18;;;;;;;7.03;3.58;;;13.70;99.90;;;;;;6682876;88;20581;-76
2021/05/12 06:42:19;;;;;;;7.75;3.37;;;13.80;99.90;;;;;;6681856;88;20341;-77
2021/05/12 06:52:19;;;;;;;8.18;2.87;;;14.00;99.90;;;;;;6681317;88;20201;-76
2021/05/12 07:02:20;;;;;;;5.82;2.65;;;14.20;99.90;;;;;;6684056;88;20291;-76
2021/05/12 07:12:20;;;;;;;4.40;2.45;;;14.50;99.90;;;;;;6682729;88;20249;-75
2021/05/12 07:22:21;;;;;;;5.40;2.60;;;14.70;99.90;;;;;;6692023;88;21143;-77
2021/05/12 07:32:22;;;;;;;6.40;2.20;;;15.10;99.90;;;;;;6689279;88;20198;-77
2021/05/12 07:42:25;;;;;;;4.53;2.00;;;15.30;99.90;;;;;;6688792;88;20186;-77
2021/05/12 07:52:25;;;;;;;6.57;2.33;;;15.60;99.90;;;;;;6683651;88;20527;-75
2021/05/12 08:02:26;;;;;;;5.47;2.08;;;15.70;99.90;;;;;;6684501;88;20232;-75
2021/05/12 08:12:26;;;;;;;5.70;2.10;;;16.10;99.90;;;;;;6684156;88;20229;-76
2021/05/12 08:22:27;;;;;;;4.53;2.17;;;16.50;99.90;;;;;;6683690;88;20223;-78
2021/05/12 08:32:29;;;;;;;6.55;2.53;;;17.20;99.90;;;;;;6683095;88;20230;-77
2021/05/12 08:42:30;;;;;;;5.93;2.70;;;17.90;99.90;;;;;;6683239;88;20227;-77
2021/05/12 08:52:32;;;;;;;6.40;2.60;;;18.20;99.90;;;;;;6683586;88;20232;-76
2021/05/12 09:02:32;;;;;;;6.32;2.50;;;18.80;99.90;;;;;;6682654;88;20206;-76
2021/05/12 09:12:47;;;;;;;7.57;2.58;;;19.00;99.90;;;;;;6682656;88;20191;-76
2021/05/12 09:22:49;;;;;;;5.22;2.20;;;18.40;99.90;;;;;;6682943;88;20218;-75
2021/05/12 09:32:50;;;;;;;10.30;2.70;;;19.00;99.90;;;;;;6680899;88;20187;-78
2021/05/12 09:42:59;;;;;;;7.50;2.83;;;20.20;99.90;;;;;;6688659;88;20183;-78
2021/05/12 09:53:03;;;;;;;8.45;2.50;;;20.10;99.90;;;;;;6689782;88;20674;-78
2021/05/12 10:03:05;;;;;;;6.10;2.35;;;20.50;99.90;;;;;;6689051;88;20247;-77
2021/05/12 10:13:06;;;;;;;5.30;2.40;;;20.00;99.90;;;;;;6689355;88;20287;-77
2021/05/12 10:23:07;;;;;;;6.65;2.55;;;19.30;99.90;;;;;;6686257;88;20211;-77
2021/05/12 10:33:11;;;;;;;4.80;2.28;;;19.40;99.90;;;;;;6688057;88;20733;-76
2021/05/12 10:43:23;;;;;;;8.35;2.85;;;19.30;99.90;;;;;;6689592;88;20327;-77
2021/05/12 10:53:25;;;;;;;7.22;2.60;;;19.20;99.90;;;;;;6693070;88;20222;-77
2021/05/12 11:03:55;;;;;;;5.75;2.40;;;19.30;99.90;;;;;;6695431;88;20245;-77
2021/05/12 11:14:22;;;;;;;5.00;1.80;;;20.60;93.80;;;;;;6697672;88;20187;-77
2021/05/12 11:24:22;;;;;;;7.10;2.47;;;20.30;94.70;;;;;;6697781;88;20191;-78
2021/05/12 11:34:23;;;;;;;6.18;2.30;;;19.90;97.10;;;;;;6695720;88;20776;-77
2021/05/12 11:44:24;;;;;;;4.30;2.00;;;20.00;96.30;;;;;;6695278;88;20191;-77
2021/05/12 11:54:25;;;;;;;4.25;2.30;;;19.40;95.40;;;;;;6692695;88;20202;-78
2021/05/12 12:05:00;;;;;;;6.65;2.28;;;18.30;99.30;;;;;;6694793;88;20183;-76
2021/05/12 12:15:06;;;;;;;5.25;1.80;;;18.80;99.20;;;;;;6690674;88;20305;-78
2021/05/12 12:25:17;;;;;;;;;;;21.40;93.50;;;;;;6693878;88;20180;-76
2021/05/12 12:35:17;;;;;;;5.15;2.25;;;22.50;90.40;;;;;;6693789;88;20079;-80
2021/05/12 12:45:27;;;;;;;5.03;2.30;;;21.70;92.80;;;;;;6691577;88;20220;-77
2021/05/12 12:55:33;;;;;;;4.97;2.50;;;21.50;92.60;;;;;;6694295;88;20632;-77
2021/05/12 13:05:44;;;;;;;6.68;2.83;;;20.90;93.60;;;;;;6694426;88;20179;-78
2021/05/12 13:15:44;;;;;;;4.93;3.00;;;20.10;95.70;;;;;;6690437;88;20310;-78
2021/05/12 13:25:50;;;;;;;5.60;3.10;;;20.10;96.00;;;;;;6693263;88;20642;-77
2021/05/12 13:35:52;;;;;;;4.85;3.00;;;20.00;98.50;;;;;;6693435;88;20216;-77
2021/05/12 13:45:53;;;;;;;5.75;2.75;;;21.00;96.40;;;;;;6691289;88;20193;-78
2021/05/12 14:06:14;;;;;;;3.87;1.83;;;23.40;81.30;;;;;;6693317;88;20268;-79
2021/05/12 14:16:27;;;;;;;4.68;2.28;;;24.10;81.30;;;;;;6691324;88;20200;-78
2021/05/12 14:26:29;;;;;;;4.80;1.77;;;24.10;73.40;;;;;;6690318;89;20233;-76
2021/05/12 14:36:29;;;;;;;7.72;1.50;;;23.10;75.20;;;;;;6693851;88;20171;-77
2021/05/12 14:46:30;;;;;;;5.60;1.60;;;24.20;72.20;;;;;;6693672;88;20294;-79
2021/05/12 14:56:52;;;;;;;3.35;2.03;;;24.90;68.00;;;;;;6690295;88;20235;-79
2021/05/12 15:06:53;;;;;;;5.05;2.75;;;23.50;78.30;;;;;;6687176;88;20202;-78
2021/05/12 15:16:53;;;;;;;9.02;3.03;;;23.70;73.10;;;;;;6690584;88;20197;-79
2021/05/12 15:26:54;;;;;;;3.87;2.00;;;22.00;87.80;;;;;;6694020;88;20202;-79
2021/05/12 15:36:55;;;;;;;6.20;2.87;;;20.90;89.10;;;;;;6704165;88;20198;-80
2021/05/12 15:46:56;;;;;;;5.23;2.87;;;20.00;91.90;;;;;;6706998;88;20291;-78
2021/05/12 15:56:56;;;;;;;6.28;2.33;;;19.80;92.00;;;;;;6711968;88;20509;-79
2021/05/12 16:06:57;;;;;;;6.35;2.08;;;19.40;94.60;;;;;;6706640;88;20220;-78
2021/05/12 16:17:01;;;;;;;5.28;2.00;;;19.30;93.60;;;;;;6698066;88;20198;-79
2021/05/12 16:27:01;;;;;;;4.85;1.60;;;19.00;93.90;;;;;;6703568;88;20198;-78
2021/05/12 16:37:02;;;;;;;4.20;2.17;;;18.90;92.80;;;;;;6703157;88;20212;-78
2021/05/12 16:47:03;;;;;;;5.32;3.35;;;17.60;99.90;;;;;;6705137;88;20301;-79
2021/05/12 16:57:04;;;;;;;4.75;2.75;;;17.00;99.90;;;;;;6701483;88;20322;-76
2021/05/12 17:07:06;;;;;;;5.57;3.47;;;16.90;99.90;;;;;;6711706;88;20678;-77
2021/05/12 17:17:06;;;;;;;7.28;3.40;;;16.40;99.90;;;;;;6710559;88;20200;-79
2021/05/12 17:27:08;;;;;;;5.53;2.90;;;16.10;99.90;;;;;;6710904;88;20164;-77
2021/05/12 17:37:09;;;;;;;7.10;3.67;;;15.80;99.90;;;;;;6711561;88;20238;-79
2021/05/12 17:47:09;;;;;;;5.05;2.30;;;17.00;99.90;;;;;;6711035;88;20292;-80
2021/05/12 17:57:10;;;;;;;3.08;1.55;;;18.90;99.90;;;;;;6710110;88;20203;-79
2021/05/12 18:07:11;;;;;;;4.73;1.70;;;19.10;99.90;;;;;;6696293;88;20198;-78
2021/05/12 18:17:20;;;;;;;5.35;2.50;;;18.20;99.90;;;;;;6693128;88;20164;-78
2021/05/12 18:27:20;;;;;;;6.93;2.80;;;16.80;99.90;;;;;;6701709;88;20198;-78
2021/05/12 18:47:25;;;;;;;5.90;3.70;;;16.00;99.90;;;;;;6693125;88;20183;-81
2021/05/12 18:57:26;;;;;;;6.87;3.70;;;15.30;99.90;;;;;;6696429;88;20163;-82
2021/05/12 19:07:32;;;;;;;8.05;3.78;;;14.90;99.90;;;;;;6696331;88;20197;-79
2021/05/12 19:17:35;;;;;;;5.00;3.25;;;14.70;99.90;;;;;;6696446;88;20217;-78
2021/05/12 19:40:06;;;;;;;3.62;2.70;;;14.60;99.90;;;;;;6690790;88;20327;-77
2021/05/12 19:48:05;;;;;;;6.75;3.10;;;14.60;99.90;;;;;;6688252;88;20210;-78
2021/05/12 19:58:15;;;;;;;7.62;3.42;;;14.50;99.90;;;;;;6685761;88;20733;-78
2021/05/12 20:08:32;;;;;;;6.60;3.78;;;14.30;99.90;;;;;;6689570;88;20191;-78
2021/05/12 20:18:33;;;;;;;5.05;3.10;;;14.10;99.90;;;;;;6692943;88;20297;-79
2021/05/12 20:28:33;;;;;;;7.18;3.20;;;13.80;99.90;;;;;;6692352;88;20656;-79
2021/05/12 20:38:34;;;;;;;5.57;3.60;;;13.60;99.90;;;;;;6688425;88;21021;-79
2021/05/12 20:48:34;;;;;;;6.72;4.20;;;13.50;99.90;;;;;;6694144;88;20342;-79
2021/05/12 20:58:35;;;;;;;10.20;3.20;;;13.50;99.90;;;;;;6692549;88;20224;-79
2021/05/12 21:08:37;;;;;;;8.13;3.33;;;13.40;99.90;;;;;;6691954;88;20694;-79
2021/05/12 21:18:39;;;;;;;5.28;3.60;;;13.30;99.90;;;;;;6690021;88;20208;-79
2021/05/12 21:28:41;;;;;;;5.80;3.85;;;13.40;99.90;;;;;;6691836;88;20206;-81
2021/05/12 21:38:44;;;;;;;8.35;4.30;;;13.40;99.90;;;;;;6691284;88;20202;-79
2021/05/12 21:48:44;;;;;;;8.25;4.55;;;13.10;99.90;;;;;;6693608;88;20187;-79
2021/05/12 21:58:45;;;;;;;7.87;3.40;;;12.70;99.90;;;;;;6693304;88;20710;-80
2021/05/12 22:09:19;;;;;;;4.90;3.22;;;12.60;99.90;;;;;;6691683;88;20325;-79
2021/05/12 22:39:57;;;;;;;7.53;3.90;;;12.00;99.90;;;;;;6692968;88;20244;-78
2021/05/12 22:49:58;;;;;;;9.30;3.97;;;11.90;99.90;;;;;;6693910;88;20200;-77
2021/05/12 22:59:59;;;;;;;6.30;3.70;;;11.60;99.90;;;;;;6694164;88;20268;-79
2021/05/12 23:09:59;;;;;;;5.75;3.87;;;11.50;99.90;;;;;;6694404;88;20241;-78
2021/05/12 23:20:00;;;;;;;5.50;3.73;;;11.20;99.90;;;;;;6694792;88;20175;-78
2021/05/12 23:30:01;;;;;;;6.37;4.30;;;10.90;99.90;;;;;;6693432;88;20197;-78
2021/05/12 23:40:02;;;;;;;8.15;4.03;;;10.60;99.90;;;;;;6694158;88;20196;-78
2021/05/12 23:50:04;;;;;;;6.72;4.50;;;10.50;99.90;;;;;;6694326;88;20183;-78
